Airfield :







YOU CAN JOIN US ON...

 
LOGIN :

Register | Disclaimer

   EN    FR    IT 

 









Legend :    VFR   Marginal VFR   IFR   Intensive IFR   Very Intensive IFR
Visi :
Ceiling :
>= 8 km
>= 3000ft
5 to 8 km
1000 to 3000 ft
1500m to 5 km
500 to 1000 ft
800 to 1500m
200 to 500 ft
< 800m
< 200 ft
Symbols :   Thunderstorms  Fog  Heavy snow  Heavy precipitations  Wind > 20 kt







- Airport Elevation : 71 ft
- IATA code : YBC


CYBC - Baie Comeau

CURRENT METAR :
  • 192300Z AUTO 03003KT 360V070 9SM BKN150 BKN170 09/02 A3004 RMK SLP173

EXPIRED METARs :
  • 192200Z AUTO 04004KT 9SM BKN140 BKN160 BKN180 09/03 A3005 RMK SLP178
  • 192100Z AUTO 08007KT 9SM CLR 10/02 A3006 RMK SLP181
  • 192000Z AUTO 09006KT 9SM FEW140 11/01 A3007 RMK SLP186

TAF TAF CYBC
Valid from the 19 at 20:00 until the 20 at 08:00 UTC


191938Z 1920/2008 10010KT P6SM FEW080
BECMG 2000/2002 08008KT
FM200600 08010G20KT P6SM BKN030
TEMPO 2006/2008 5SM -RA BR BKN020 RMK FCST BASED ON AUTO OBS. NXT FCST BY 200200Z
CZUL FIR / North America



MET'MAP, your aeronautical weather chart ! - Copyright ORBIFLY December 2007 - Disclaimer

ORBIFLY MET'MAP TEAM :

Programming & Development : Alexandra Zaïnal
Concept & Development : Baudouin d'Aumeries
Co-Development & Prog : Marc-Olivier Méhu
Technical & hardware support : Manuel Goepfert

Contact : metmap@orbifly.com




SOURCES & CREDITS :

   NOAA